createdAt,value
2024-02-07T00:00:12.966Z,3063.78
2024-02-07T00:01:13.181Z,3036.12
2024-02-07T00:02:13.024Z,3046.43
2024-02-07T00:03:12.946Z,3036.12
2024-02-07T00:04:13.060Z,3049.89
2024-02-07T00:05:12.945Z,3030.99
2024-02-07T00:06:13.016Z,3005.59
2024-02-07T00:07:12.966Z,2962.55
2024-02-07T00:08:13.032Z,2933.48
2024-02-07T00:09:12.850Z,2927.09
2024-02-07T00:10:12.941Z,2892.47
2024-02-07T00:11:12.822Z,2908.11
2024-02-07T00:12:12.947Z,2880.08
2024-02-07T00:13:12.824Z,2858.66
2024-02-07T00:14:12.786Z,2861.70
2024-02-07T00:15:12.791Z,2810.87
2024-02-07T00:16:12.812Z,2799.17
2024-02-07T00:17:12.747Z,2805.00
2024-02-07T00:18:12.802Z,2764.65
2024-02-07T00:19:12.858Z,2770.34
2024-02-07T00:20:12.971Z,2784.68
2024-02-07T00:21:12.718Z,2744.90
2024-02-07T00:22:12.770Z,2739.31
2024-02-07T00:23:12.667Z,2756.15
2024-02-07T00:24:12.660Z,2708.96
2024-02-07T00:25:12.772Z,2730.96
2024-02-07T00:26:12.725Z,2733.74
2024-02-07T00:27:12.647Z,2753.33
2024-02-07T00:28:12.626Z,2778.93
2024-02-07T00:29:12.586Z,2802.08
2024-02-07T00:30:22.454Z,2781.80
2024-02-07T00:31:12.628Z,2822.67
2024-02-07T00:32:12.560Z,2834.56
2024-02-07T00:33:12.626Z,2822.67
2024-02-07T00:34:12.566Z,2840.55
2024-02-07T00:35:12.639Z,2831.58
2024-02-07T00:36:12.512Z,2837.55
2024-02-07T00:37:12.516Z,2846.56
2024-02-07T00:38:12.479Z,2852.60
2024-02-07T00:39:12.489Z,2846.56
2024-02-07T00:40:12.505Z,2886.27
2024-02-07T00:41:12.439Z,2873.93
2024-02-07T00:42:12.427Z,2886.27
2024-02-07T00:43:12.472Z,2889.37
2024-02-07T00:44:12.392Z,2873.93
2024-02-07T00:45:12.406Z,2917.57
2024-02-07T00:46:12.429Z,2895.59
2024-02-07T00:47:12.365Z,2901.83
2024-02-07T00:48:12.420Z,2911.25
2024-02-07T00:49:12.369Z,2911.25
2024-02-07T00:50:12.343Z,2880.08
2024-02-07T00:51:12.322Z,2867.80
2024-02-07T00:52:12.333Z,2867.80
2024-02-07T00:53:12.283Z,2837.55
2024-02-07T00:54:12.299Z,2831.58
2024-02-07T00:55:12.278Z,2819.71
2024-02-07T00:56:12.275Z,2843.55
2024-02-07T00:57:12.238Z,2822.67
2024-02-07T00:58:12.262Z,2810.87
2024-02-07T00:59:12.225Z,2805.00
2024-02-07T01:00:12.203Z,2837.55
2024-02-07T01:01:12.253Z,2813.81
2024-02-07T01:02:12.267Z,2828.60
2024-02-07T01:03:12.207Z,2849.58
2024-02-07T01:04:12.192Z,2877.00
2024-02-07T01:05:12.376Z,2886.27
2024-02-07T01:06:12.210Z,2911.25
2024-02-07T01:07:12.285Z,2956.04
2024-02-07T01:08:12.238Z,2936.68
2024-02-07T01:09:12.069Z,2952.80
2024-02-07T01:10:12.108Z,2930.28
2024-02-07T01:11:12.098Z,2959.30
2024-02-07T01:12:12.048Z,2995.54
2024-02-07T01:13:12.081Z,3046.43
2024-02-07T01:14:12.023Z,3029.28
2024-02-07T01:15:12.011Z,3042.99
2024-02-07T01:16:12.017Z,3079.56
2024-02-07T01:17:11.982Z,3093.73
2024-02-07T01:18:12.116Z,3122.46
2024-02-07T01:19:12.165Z,3192.88
2024-02-07T01:20:12.318Z,3292.53
2024-02-07T01:21:11.951Z,3373.04
2024-02-07T01:22:11.961Z,3413.71
2024-02-07T01:23:11.937Z,3442.10
2024-02-07T01:24:11.952Z,3482.20
2024-02-07T01:25:11.931Z,3446.51
2024-02-07T01:26:11.869Z,3479.95
2024-02-07T01:27:11.849Z,3477.70
2024-02-07T01:28:11.894Z,3511.75
2024-02-07T01:29:11.821Z,3509.46
2024-02-07T01:30:11.851Z,3520.94
2024-02-07T01:31:11.849Z,3520.94
2024-02-07T01:32:11.786Z,3507.17
2024-02-07T01:33:11.919Z,3484.46
2024-02-07T01:34:11.835Z,3453.15
2024-02-07T01:35:11.921Z,3431.12
2024-02-07T01:36:11.750Z,3405.06
2024-02-07T01:37:11.741Z,3366.71
2024-02-07T01:38:11.726Z,3356.21
2024-02-07T01:39:11.684Z,3349.94
2024-02-07T01:40:12.046Z,3296.57
2024-02-07T01:41:11.679Z,3320.99
2024-02-07T01:42:11.680Z,3306.70
2024-02-07T01:43:12.974Z,3292.53
2024-02-07T01:44:11.630Z,3264.56
2024-02-07T01:45:11.610Z,3211.94
2024-02-07T01:46:11.631Z,3223.49
2024-02-07T01:47:11.624Z,3206.20
2024-02-07T01:48:11.716Z,3190.98
2024-02-07T01:49:11.684Z,3208.11
2024-02-07T01:50:11.542Z,3168.43
2024-02-07T01:51:11.548Z,3164.71
2024-02-07T01:52:11.659Z,3162.84
2024-02-07T01:53:11.548Z,3149.88
2024-02-07T01:54:11.519Z,3153.57
2024-02-07T01:55:11.511Z,3153.57
2024-02-07T01:56:11.568Z,3146.20
2024-02-07T01:57:11.496Z,3162.84
2024-02-07T01:58:11.491Z,3196.67
2024-02-07T01:59:11.453Z,3202.38
2024-02-07T02:00:11.437Z,3221.56
2024-02-07T02:01:11.558Z,3229.29
2024-02-07T02:02:11.484Z,3237.06
2024-02-07T02:03:11.456Z,3225.42
2024-02-07T02:04:11.505Z,3215.78
2024-02-07T02:05:11.405Z,3208.11
2024-02-07T02:06:11.383Z,3208.11
2024-02-07T02:07:11.424Z,3157.28
2024-02-07T02:08:11.331Z,3170.30
2024-02-07T02:09:11.320Z,3175.92
2024-02-07T02:10:14.182Z,3160.99
2024-02-07T02:11:11.381Z,3170.30
2024-02-07T02:12:11.277Z,3166.57
2024-02-07T02:13:11.296Z,3181.55
2024-02-07T02:14:11.254Z,3239.01
2024-02-07T02:15:11.273Z,3280.49
2024-02-07T02:16:11.239Z,3331.27
2024-02-07T02:17:11.210Z,3433.31
2024-02-07T02:18:11.249Z,3534.82
2024-02-07T02:19:11.336Z,3615.59
2024-02-07T02:20:11.432Z,3712.91
2024-02-07T02:21:11.220Z,3812.90
2024-02-07T02:22:11.148Z,3892.91
2024-02-07T02:23:11.143Z,3979.29
2024-02-07T02:24:11.128Z,4057.31
2024-02-07T02:25:11.164Z,4177.02
2024-02-07T02:26:11.119Z,4290.27
2024-02-07T02:27:11.096Z,4461.03
2024-02-07T02:28:11.119Z,4567.06
2024-02-07T02:29:11.067Z,4547.76
2024-02-07T02:30:11.065Z,4490.82
2024-02-07T02:31:11.050Z,4442.61
2024-02-07T02:32:11.052Z,4402.62
2024-02-07T02:33:11.356Z,4461.03
2024-02-07T02:34:11.108Z,4670.14
2024-02-07T02:35:11.035Z,4940.31
2024-02-07T02:36:10.976Z,5213.18
2024-02-07T02:37:10.980Z,5569.36
2024-02-07T02:38:10.957Z,5964.52
2024-02-07T02:39:10.984Z,6466.35
2024-02-07T02:40:10.973Z,6827.41
2024-02-07T02:41:11.007Z,7163.78
2024-02-07T02:42:10.904Z,7535.01
2024-02-07T02:43:10.969Z,7819.77
2024-02-07T02:44:11.063Z,8220.02
2024-02-07T02:45:10.866Z,8519.40
2024-02-07T02:46:11.031Z,8877.89
2024-02-07T02:47:10.841Z,9026.85
2024-02-07T02:48:13.928Z,9275.86
2024-02-07T02:49:10.882Z,9389.18
2024-02-07T02:50:10.840Z,9488.54
2024-02-07T02:51:10.803Z,9564.45
2024-02-07T02:52:10.851Z,9488.54
2024-02-07T02:53:10.758Z,9455.18
2024-02-07T02:54:10.756Z,9471.83
2024-02-07T02:55:10.776Z,9446.88
2024-02-07T02:56:11.142Z,9513.71
2024-02-07T02:57:10.703Z,9496.91
2024-02-07T02:58:10.755Z,9480.18
2024-02-07T02:59:10.719Z,9212.33
2024-02-07T03:00:10.688Z,9212.33
2024-02-07T03:01:10.728Z,9042.02
2024-02-07T03:02:10.805Z,8922.06
2024-02-07T03:03:10.621Z,8892.56
2024-02-07T03:04:10.722Z,8747.97
2024-02-07T03:05:10.666Z,8684.42
2024-02-07T03:06:10.686Z,8566.88
2024-02-07T03:07:10.643Z,8519.40
2024-02-07T03:08:10.561Z,8445.84
2024-02-07T03:09:10.776Z,8499.21
2024-02-07T03:10:10.651Z,8573.71
2024-02-07T03:11:10.559Z,8485.80
2024-02-07T03:12:10.504Z,8485.80
2024-02-07T03:13:10.601Z,8635.63
2024-02-07T03:14:10.485Z,8587.39
2024-02-07T03:15:10.509Z,8445.84
2024-02-07T03:16:10.475Z,8354.04
2024-02-07T03:17:10.459Z,8472.44
2024-02-07T03:18:10.776Z,8526.15
2024-02-07T03:19:10.522Z,8512.66
2024-02-07T03:20:10.479Z,8465.78
2024-02-07T03:21:10.421Z,8445.84
2024-02-07T03:22:10.485Z,8445.84
2024-02-07T03:23:10.373Z,8539.68
2024-02-07T03:24:10.554Z,8499.21
2024-02-07T03:25:10.393Z,8519.40
2024-02-07T03:26:10.395Z,8601.12
2024-02-07T03:27:10.315Z,8649.52
2024-02-07T03:28:10.348Z,8691.44
2024-02-07T03:29:10.305Z,8834.15
2024-02-07T03:30:10.287Z,8877.89
2024-02-07T03:31:10.322Z,8974.14
2024-02-07T03:32:10.254Z,8996.66
2024-02-07T03:33:10.312Z,9057.24
2024-02-07T03:34:10.361Z,9118.64
2024-02-07T03:35:10.290Z,9259.90
2024-02-07T03:36:10.263Z,9455.18
2024-02-07T03:37:10.217Z,9496.91
2024-02-07T03:38:10.189Z,9615.73
2024-02-07T03:39:10.168Z,9684.97
2024-02-07T03:40:10.194Z,9728.75
2024-02-07T03:41:10.215Z,9564.45
2024-02-07T03:42:10.140Z,9422.07
2024-02-07T03:43:10.130Z,9455.18
2024-02-07T03:44:10.123Z,9389.18
2024-02-07T03:45:10.096Z,9488.54
2024-02-07T03:46:13.241Z,9372.82
2024-02-07T03:47:10.110Z,9590.02
2024-02-07T03:48:10.070Z,9711.19
2024-02-07T03:49:10.143Z,9693.69
2024-02-07T03:50:10.115Z,9711.19
2024-02-07T03:51:10.078Z,9817.52
2024-02-07T03:52:10.068Z,9926.20
2024-02-07T03:53:09.993Z,9862.51
2024-02-07T03:54:09.968Z,9799.64
2024-02-07T03:55:10.032Z,9844.46
2024-02-07T03:56:09.985Z,9817.52
2024-02-07T03:57:09.952Z,9737.56
2024-02-07T03:58:09.982Z,9641.58
2024-02-07T03:59:09.906Z,9676.26
2024-02-07T04:00:09.928Z,9547.47
2024-02-07T04:01:10.003Z,9438.60
2024-02-07T04:02:09.912Z,9196.58
2024-02-07T04:03:09.869Z,9087.84
2024-02-07T04:04:10.752Z,9019.28
2024-02-07T04:05:09.939Z,8892.56
2024-02-07T04:06:09.855Z,8776.51
2024-02-07T04:07:10.043Z,8628.71
2024-02-07T04:08:10.020Z,8573.71
2024-02-07T04:09:09.938Z,8499.21
2024-02-07T04:10:09.805Z,8512.66
2024-02-07T04:11:09.776Z,8505.93
2024-02-07T04:12:09.749Z,8492.50
2024-02-07T04:13:09.749Z,8465.78
2024-02-07T04:14:09.729Z,8452.47
2024-02-07T04:15:09.732Z,8341.08
2024-02-07T04:16:09.718Z,8283.29
2024-02-07T04:17:09.689Z,8360.53
2024-02-07T04:18:09.798Z,8406.25
2024-02-07T04:19:09.799Z,8373.54
2024-02-07T04:20:09.707Z,8276.92
2024-02-07T04:21:09.664Z,8126.89
2024-02-07T04:22:09.651Z,8059.92
2024-02-07T04:23:09.598Z,7923.42
2024-02-07T04:24:09.594Z,7888.56
2024-02-07T04:25:09.621Z,7825.46
2024-02-07T04:26:09.568Z,7808.42
2024-02-07T04:27:09.576Z,7741.01
2024-02-07T04:28:09.621Z,7663.82
2024-02-07T04:29:09.523Z,7519.22
2024-02-07T04:30:09.532Z,7231.18
2024-02-07T04:31:09.545Z,7000.65
2024-02-07T04:32:09.492Z,6629.70
2024-02-07T04:33:09.660Z,6408.58
2024-02-07T04:34:09.588Z,6208.89
2024-02-07T04:35:09.513Z,5938.19
2024-02-07T04:36:09.466Z,5735.61
2024-02-07T04:37:09.470Z,5534.98
2024-02-07T04:38:09.429Z,5337.30
2024-02-07T04:39:09.434Z,5114.07
2024-02-07T04:40:09.459Z,4917.73
2024-02-07T04:41:09.397Z,4752.65
2024-02-07T04:42:09.364Z,4578.72
2024-02-07T04:43:09.391Z,4517.21
2024-02-07T04:44:09.359Z,4435.28
2024-02-07T04:45:09.320Z,4352.75
2024-02-07T04:46:09.329Z,4229.56
2024-02-07T04:47:09.337Z,4000.00
2024-02-07T04:48:09.336Z,3898.55
2024-02-07T04:49:09.376Z,3851.11
2024-02-07T04:50:09.338Z,3783.40
2024-02-07T04:51:09.236Z,3741.31
2024-02-07T04:52:09.280Z,3679.89
2024-02-07T04:53:09.210Z,3622.90
2024-02-07T04:54:12.238Z,3525.56
2024-02-07T04:55:09.279Z,3473.21
2024-02-07T04:56:09.180Z,3415.87
2024-02-07T04:57:09.176Z,3358.30
2024-02-07T04:58:09.235Z,3312.81
2024-02-07T04:59:09.143Z,3278.49
2024-02-07T05:00:09.158Z,3217.70
2024-02-07T05:01:09.212Z,3168.43
2024-02-07T05:02:11.597Z,3133.37
2024-02-07T05:03:09.149Z,3160.99
2024-02-07T05:04:09.142Z,3111.62
2024-02-07T05:05:09.080Z,3074.28
2024-02-07T05:06:09.124Z,3069.02
2024-02-07T05:07:09.094Z,3041.27
2024-02-07T05:08:09.030Z,2962.55
2024-02-07T05:09:09.029Z,2920.74
2024-02-07T05:10:09.031Z,2911.25
2024-02-07T05:11:08.995Z,2904.97
2024-02-07T05:12:08.988Z,2993.88
2024-02-07T05:13:09.059Z,3020.77
2024-02-07T05:14:08.948Z,3039.55
2024-02-07T05:15:08.923Z,3065.53
2024-02-07T05:16:09.010Z,3097.29
2024-02-07T05:17:08.923Z,3149.88
2024-02-07T05:18:08.925Z,3137.03
2024-02-07T05:19:08.940Z,3102.65
2024-02-07T05:20:08.898Z,3083.09
2024-02-07T05:21:08.854Z,3074.28
2024-02-07T05:22:08.888Z,3046.43
2024-02-07T05:23:08.845Z,3083.09
2024-02-07T05:24:08.841Z,3088.40
2024-02-07T05:25:08.821Z,3083.09
2024-02-07T05:26:08.804Z,3149.88
2024-02-07T05:27:08.779Z,3196.67
2024-02-07T05:28:08.824Z,3233.17
2024-02-07T05:29:08.745Z,3300.61
2024-02-07T05:30:08.748Z,3370.93
2024-02-07T05:31:08.749Z,3453.15
2024-02-07T05:32:08.911Z,3551.16
2024-02-07T05:33:08.786Z,3591.46
2024-02-07T05:34:08.828Z,3705.23
2024-02-07T05:35:08.781Z,3823.74
2024-02-07T05:36:08.676Z,3967.55
2024-02-07T05:37:08.663Z,4032.98
2024-02-07T05:38:08.649Z,4063.44
2024-02-07T05:39:08.655Z,4075.76
2024-02-07T05:40:08.629Z,4029.96
2024-02-07T05:41:08.600Z,4045.11
2024-02-07T05:42:08.597Z,4014.93
2024-02-07T05:43:08.575Z,4026.95
2024-02-07T05:44:08.582Z,4063.44
2024-02-07T05:45:08.587Z,4100.61
2024-02-07T05:46:08.549Z,4164.09
2024-02-07T05:47:08.536Z,4167.31
2024-02-07T05:48:08.570Z,4219.61
2024-02-07T05:49:08.586Z,4269.84
2024-02-07T05:50:08.552Z,4307.45
2024-02-07T05:51:08.504Z,4338.71
2024-02-07T05:52:08.468Z,4342.21
2024-02-07T05:53:08.452Z,4314.35
2024-02-07T05:54:08.444Z,4338.71
2024-02-07T05:55:08.429Z,4449.96
2024-02-07T05:56:09.950Z,4513.42
2024-02-07T05:57:08.416Z,4610.11
2024-02-07T05:58:08.393Z,4670.14
2024-02-07T05:59:08.431Z,4748.46
2024-02-07T06:00:08.361Z,4846.85
2024-02-07T06:01:08.370Z,4890.91
2024-02-07T06:02:08.421Z,5013.98
2024-02-07T06:03:08.321Z,5158.20
2024-02-07T06:04:08.374Z,5269.34
2024-02-07T06:05:08.442Z,5264.19
2024-02-07T06:06:08.295Z,5337.30
2024-02-07T06:07:08.291Z,5347.91
2024-02-07T06:08:08.308Z,5358.56
2024-02-07T06:09:08.250Z,5401.61
2024-02-07T06:10:08.227Z,5489.80
2024-02-07T06:11:08.245Z,5563.60
2024-02-07T06:12:08.239Z,5633.51
2024-02-07T06:13:08.198Z,5735.61
2024-02-07T06:14:08.220Z,5735.61
2024-02-07T06:15:08.180Z,5693.12
2024-02-07T06:16:08.165Z,5580.91
2024-02-07T06:17:08.203Z,5546.39
2024-02-07T06:18:08.166Z,5501.02
2024-02-07T06:19:08.294Z,5506.65
2024-02-07T06:20:08.217Z,5580.91
2024-02-07T06:21:08.247Z,5598.33
2024-02-07T06:22:08.091Z,5705.20
2024-02-07T06:23:08.116Z,5886.21
2024-02-07T06:24:08.076Z,5991.09
2024-02-07T06:25:08.134Z,6124.08
2024-02-07T06:26:08.074Z,6138.05
2024-02-07T06:27:08.013Z,6176.81
2024-02-07T06:28:08.003Z,6162.66
2024-02-07T06:29:08.011Z,6180.36
2024-02-07T06:30:07.974Z,6117.11
2024-02-07T06:31:08.129Z,6096.32
2024-02-07T06:32:08.000Z,6117.11
2024-02-07T06:33:08.000Z,6120.59
2024-02-07T06:34:08.030Z,6159.13
2024-02-07T06:35:07.971Z,6176.81
2024-02-07T06:36:07.918Z,6219.65
2024-02-07T06:37:07.908Z,6198.16
2024-02-07T06:38:07.918Z,6226.85
2024-02-07T06:39:07.916Z,6344.34
2024-02-07T06:40:07.856Z,6310.85
2024-02-07T06:41:07.849Z,6333.14
2024-02-07T06:42:07.877Z,6270.40
2024-02-07T06:43:07.863Z,6138.05
2024-02-07T06:44:07.893Z,6031.39
2024-02-07T06:45:07.793Z,5991.09
2024-02-07T06:46:07.791Z,5977.78
2024-02-07T06:47:07.750Z,5957.92
2024-02-07T06:48:07.924Z,5873.36
2024-02-07T06:49:07.755Z,5892.66
2024-02-07T06:50:07.805Z,5931.64
2024-02-07T06:51:07.717Z,5984.43
2024-02-07T06:52:08.376Z,6124.08
2024-02-07T06:53:08.887Z,6183.91
2024-02-07T06:54:07.672Z,6270.40
2024-02-07T06:55:07.659Z,6374.41
2024-02-07T06:56:07.755Z,6443.11
2024-02-07T06:57:07.730Z,6529.13
2024-02-07T06:58:07.638Z,6454.71
2024-02-07T06:59:07.686Z,6493.66
2024-02-07T07:00:07.670Z,6573.00
2024-02-07T07:01:07.666Z,6650.19
2024-02-07T07:02:07.664Z,6797.22
2024-02-07T07:03:07.636Z,6977.95
2024-02-07T07:04:07.543Z,7130.55
2024-02-07T07:05:07.665Z,7236.05
2024-02-07T07:06:07.553Z,7405.37
2024-02-07T07:07:07.505Z,7588.15
2024-02-07T07:08:08.172Z,7797.10
2024-02-07T07:09:07.502Z,8035.85
2024-02-07T07:10:07.508Z,8302.47
2024-02-07T07:11:07.457Z,8566.88
2024-02-07T07:12:07.461Z,8812.45
2024-02-07T07:13:07.437Z,9026.85
2024-02-07T07:14:07.457Z,9430.32
2024-02-07T07:15:17.970Z,9572.95
2024-02-07T07:16:07.465Z,9799.64
2024-02-07T07:17:07.380Z,10112.78
2024-02-07T07:18:07.439Z,10487.33
2024-02-07T07:19:10.259Z,10846.78
2024-02-07T07:20:07.425Z,11338.25
2024-02-07T07:21:07.337Z,11619.87
2024-02-07T07:22:07.358Z,11850.22
2024-02-07T07:23:15.274Z,12062.78
2024-02-07T07:24:07.294Z,12199.55
2024-02-07T07:25:07.285Z,12367.82
2024-02-07T07:26:07.304Z,12540.79
2024-02-07T07:27:07.286Z,12870.81
2024-02-07T07:28:07.240Z,12917.17
2024-02-07T07:29:07.241Z,12917.17
2024-02-07T07:30:07.216Z,12917.17
2024-02-07T07:31:07.227Z,12917.17
2024-02-07T07:32:07.196Z,12917.17
2024-02-07T07:33:07.286Z,12917.17
2024-02-07T07:34:07.222Z,12917.17
2024-02-07T07:35:07.298Z,12917.17
2024-02-07T07:36:07.156Z,12917.17
2024-02-07T07:37:07.131Z,12917.17
2024-02-07T07:38:07.125Z,12917.17
2024-02-07T07:39:07.110Z,12917.17
2024-02-07T07:40:07.109Z,12917.17
2024-02-07T07:41:07.099Z,12917.17
2024-02-07T07:42:07.133Z,12917.17
2024-02-07T07:43:07.053Z,12917.17
2024-02-07T07:44:07.180Z,12917.17
2024-02-07T07:45:07.020Z,12917.17
2024-02-07T07:46:07.017Z,12917.17
2024-02-07T07:47:07.024Z,12917.17
2024-02-07T07:48:07.112Z,12917.17
2024-02-07T07:49:07.019Z,12917.17
2024-02-07T07:50:07.057Z,12917.17
2024-02-07T07:51:06.971Z,12917.17
2024-02-07T07:52:06.962Z,12917.17
2024-02-07T07:53:06.920Z,12917.17
2024-02-07T07:54:06.914Z,12917.17
2024-02-07T07:55:06.880Z,12917.17
2024-02-07T07:56:06.961Z,12917.17
2024-02-07T07:57:06.861Z,12917.17
2024-02-07T07:58:06.856Z,12917.17
2024-02-07T07:59:06.898Z,12917.17
2024-02-07T08:00:06.838Z,12917.17
2024-02-07T08:01:06.854Z,12917.17
2024-02-07T08:02:06.872Z,12917.17
2024-02-07T08:03:06.792Z,12917.17
2024-02-07T08:04:06.810Z,12917.17
2024-02-07T08:05:06.833Z,12917.17
2024-02-07T08:06:06.777Z,12917.17
2024-02-07T08:07:06.788Z,12917.17
2024-02-07T08:08:06.809Z,12917.17
2024-02-07T08:09:06.707Z,12917.17
2024-02-07T08:10:06.759Z,12917.17
2024-02-07T08:11:06.738Z,12917.17
2024-02-07T08:12:06.673Z,12917.17
2024-02-07T08:13:06.741Z,12917.17
2024-02-07T08:14:06.718Z,12917.17
2024-02-07T08:15:06.630Z,12917.17
2024-02-07T08:16:06.663Z,12917.17
2024-02-07T08:17:06.680Z,12917.17
2024-02-07T08:18:06.678Z,12917.17
2024-02-07T08:19:07.405Z,12917.17
2024-02-07T08:20:06.598Z,12917.17
2024-02-07T08:21:06.543Z,12917.17
2024-02-07T08:22:06.543Z,12917.17
2024-02-07T08:23:06.576Z,12917.17
2024-02-07T08:24:06.551Z,12917.17
2024-02-07T08:25:06.498Z,12917.17
2024-02-07T08:26:06.569Z,12917.17
2024-02-07T08:27:06.475Z,12917.17
2024-02-07T08:28:06.489Z,12917.17
2024-02-07T08:29:06.525Z,12917.17
2024-02-07T08:30:06.466Z,12917.17
2024-02-07T08:31:06.429Z,12917.17
2024-02-07T08:32:06.634Z,12917.17
2024-02-07T08:33:06.876Z,12917.17
2024-02-07T08:34:06.486Z,12917.17
2024-02-07T08:35:06.593Z,12917.17
2024-02-07T08:36:06.539Z,12917.17
2024-02-07T08:37:06.354Z,12917.17
2024-02-07T08:38:06.532Z,12917.17
2024-02-07T08:39:06.335Z,12917.17
2024-02-07T08:40:06.305Z,12917.17
2024-02-07T08:41:06.363Z,12917.17
2024-02-07T08:42:06.297Z,12917.17
2024-02-07T08:43:06.264Z,12917.17
2024-02-07T08:44:06.346Z,12917.17
2024-02-07T08:45:06.286Z,12917.17
2024-02-07T08:46:06.239Z,12917.17
2024-02-07T08:47:06.311Z,12917.17
2024-02-07T08:48:06.282Z,12917.17
2024-02-07T08:49:06.205Z,12917.17
2024-02-07T08:50:06.292Z,12917.17
2024-02-07T08:51:06.162Z,12917.17
2024-02-07T08:52:06.204Z,12917.17
2024-02-07T08:53:06.228Z,12917.17
2024-02-07T08:54:06.135Z,12917.17
2024-02-07T08:55:06.111Z,12917.17
2024-02-07T08:56:06.129Z,12917.17
2024-02-07T08:57:06.081Z,12917.17
2024-02-07T08:58:06.090Z,12917.17
2024-02-07T08:59:06.161Z,12917.17
2024-02-07T09:00:06.052Z,12917.17
2024-02-07T09:01:06.084Z,12917.17
2024-02-07T09:02:06.133Z,12917.17
2024-02-07T09:03:06.036Z,12917.17
2024-02-07T09:04:06.020Z,12917.17
2024-02-07T09:05:06.476Z,12917.17
2024-02-07T09:06:06.133Z,12917.17
2024-02-07T09:07:05.993Z,12917.17
2024-02-07T09:08:05.983Z,12917.17
2024-02-07T09:09:05.944Z,12917.17
2024-02-07T09:10:05.920Z,12917.17
2024-02-07T09:11:05.983Z,12917.17
2024-02-07T09:12:05.922Z,12917.17
2024-02-07T09:13:05.878Z,12917.17
2024-02-07T09:14:05.897Z,12917.17
2024-02-07T09:15:05.892Z,12917.17
2024-02-07T09:16:05.846Z,12917.17
2024-02-07T09:17:05.874Z,12917.17
2024-02-07T09:18:05.858Z,12917.17
2024-02-07T09:19:05.834Z,12917.17
2024-02-07T09:20:05.838Z,12917.17
2024-02-07T09:21:05.806Z,12917.17
2024-02-07T09:22:05.766Z,12917.17
2024-02-07T09:23:05.792Z,12917.17
2024-02-07T09:24:05.742Z,12917.17
2024-02-07T09:25:05.729Z,12917.17
2024-02-07T09:26:05.930Z,12917.17
2024-02-07T09:27:05.731Z,12917.17
2024-02-07T09:28:05.677Z,12917.17
2024-02-07T09:29:05.725Z,12917.17
2024-02-07T09:30:11.242Z,12917.17
2024-02-07T09:31:05.645Z,12917.17
2024-02-07T09:32:05.674Z,12917.17
2024-02-07T09:33:06.996Z,12917.17
2024-02-07T09:34:05.664Z,12917.17
2024-02-07T09:35:05.903Z,12917.17
2024-02-07T09:36:05.683Z,12917.17
2024-02-07T09:37:05.574Z,12917.17
2024-02-07T09:38:05.625Z,12917.17
2024-02-07T09:39:05.557Z,12917.17
2024-02-07T09:40:05.796Z,12917.17
2024-02-07T09:41:05.862Z,12917.17
2024-02-07T09:42:05.515Z,12917.17
2024-02-07T09:43:05.502Z,12917.17
2024-02-07T09:44:05.546Z,12917.17
2024-02-07T09:45:05.545Z,12917.17
2024-02-07T09:46:05.461Z,12917.17
2024-02-07T09:47:05.471Z,12917.17
2024-02-07T09:48:05.618Z,12917.17
2024-02-07T09:49:05.500Z,12917.17
2024-02-07T09:50:05.458Z,12917.17
2024-02-07T09:51:05.396Z,12917.17
2024-02-07T09:52:05.362Z,12917.17
2024-02-07T09:53:05.653Z,12917.17
2024-02-07T09:54:05.338Z,12917.17
2024-02-07T09:55:05.396Z,12917.17
2024-02-07T09:56:05.360Z,12917.17
2024-02-07T09:57:05.315Z,12917.17
2024-02-07T09:58:05.290Z,12917.17
2024-02-07T09:59:05.281Z,12917.17
2024-02-07T10:00:05.267Z,12917.17
2024-02-07T10:01:05.289Z,12917.17
2024-02-07T10:02:05.329Z,12917.17
2024-02-07T10:03:05.270Z,12917.17
2024-02-07T10:04:05.224Z,12917.17
2024-02-07T10:05:05.305Z,12917.17
2024-02-07T10:06:05.222Z,12917.17
2024-02-07T10:07:05.195Z,12917.17
2024-02-07T10:08:05.250Z,12917.17
2024-02-07T10:09:05.156Z,12917.17
2024-02-07T10:10:05.142Z,12917.17
2024-02-07T10:11:05.152Z,12917.17
2024-02-07T10:12:05.143Z,12917.17
2024-02-07T10:13:05.103Z,12917.17
2024-02-07T10:14:05.095Z,12917.17
2024-02-07T10:15:05.077Z,12917.17
2024-02-07T10:16:06.784Z,12917.17
2024-02-07T10:17:05.065Z,12917.17
2024-02-07T10:18:05.153Z,12917.17
2024-02-07T10:19:05.051Z,12917.17
2024-02-07T10:20:05.075Z,12917.17
2024-02-07T10:21:05.027Z,12917.17
2024-02-07T10:22:04.988Z,12917.17
2024-02-07T10:23:05.081Z,12917.17
2024-02-07T10:24:04.969Z,12917.17
2024-02-07T10:25:04.953Z,12917.17
2024-02-07T10:26:05.065Z,12917.17
2024-02-07T10:27:05.335Z,12917.17
2024-02-07T10:28:04.915Z,12917.17
2024-02-07T10:29:04.926Z,12917.17
2024-02-07T10:30:04.917Z,12917.17
2024-02-07T10:31:04.864Z,12917.17
2024-02-07T10:32:04.889Z,12917.17
2024-02-07T10:33:04.914Z,12917.17
2024-02-07T10:34:04.844Z,12917.17
2024-02-07T10:35:04.901Z,12917.17
2024-02-07T10:36:04.822Z,12917.17
2024-02-07T10:37:04.788Z,12917.17
2024-02-07T10:38:04.784Z,12917.17
2024-02-07T10:39:04.761Z,12917.17
2024-02-07T10:40:04.788Z,12917.17
2024-02-07T10:41:04.856Z,12917.17
2024-02-07T10:42:04.713Z,12917.17
2024-02-07T10:43:04.718Z,12917.17
2024-02-07T10:44:04.740Z,12917.17
2024-02-07T10:45:04.698Z,12917.17
2024-02-07T10:46:07.037Z,12917.17
2024-02-07T10:47:04.692Z,12917.17
2024-02-07T10:48:04.722Z,12917.17
2024-02-07T10:49:04.880Z,12917.17
2024-02-07T10:50:04.830Z,12917.17
2024-02-07T10:51:04.711Z,12917.17
2024-02-07T10:52:04.665Z,12917.17
2024-02-07T10:53:04.622Z,12917.17
2024-02-07T10:54:04.561Z,12917.17
2024-02-07T10:55:04.547Z,12917.17
2024-02-07T10:56:04.582Z,12917.17
2024-02-07T10:57:04.515Z,12917.17
2024-02-07T10:58:04.543Z,12917.17
2024-02-07T10:59:04.524Z,12917.17
2024-02-07T11:00:04.516Z,12917.17
2024-02-07T11:01:04.610Z,12917.17
2024-02-07T11:02:04.562Z,12917.17
2024-02-07T11:03:04.449Z,12917.17
2024-02-07T11:04:04.501Z,12917.17
2024-02-07T11:05:04.511Z,12917.17
2024-02-07T11:06:04.525Z,12917.17
2024-02-07T11:07:04.478Z,12917.17
2024-02-07T11:08:04.493Z,12917.17
2024-02-07T11:09:04.365Z,12917.17
2024-02-07T11:10:04.437Z,12917.17
2024-02-07T11:11:04.414Z,12917.17
2024-02-07T11:12:04.323Z,12917.17
2024-02-07T11:13:04.350Z,12917.17
2024-02-07T11:14:04.473Z,12917.17
2024-02-07T11:15:04.290Z,12917.17
2024-02-07T11:16:06.711Z,12917.17
2024-02-07T11:17:04.300Z,12917.17
2024-02-07T11:18:04.313Z,12917.17
2024-02-07T11:19:04.317Z,12917.17
2024-02-07T11:20:04.311Z,12917.17
2024-02-07T11:21:04.228Z,12917.17
2024-02-07T11:22:04.221Z,12917.17
2024-02-07T11:23:04.362Z,12917.17
2024-02-07T11:24:04.187Z,12917.17
2024-02-07T11:25:04.177Z,12917.17
2024-02-07T11:26:04.259Z,12917.17
2024-02-07T11:27:04.161Z,12917.17
2024-02-07T11:28:04.131Z,12917.17
2024-02-07T11:29:07.242Z,12917.17
2024-02-07T11:30:04.086Z,12917.17
2024-02-07T11:31:04.112Z,12917.17
2024-02-07T11:32:04.151Z,12917.17
2024-02-07T11:33:04.104Z,12917.17
2024-02-07T11:34:04.161Z,12917.17
2024-02-07T11:35:04.471Z,12917.17
2024-02-07T11:36:04.018Z,12917.17
2024-02-07T11:37:03.989Z,12917.17
2024-02-07T11:38:04.060Z,12917.17
2024-02-07T11:39:03.978Z,12917.17
2024-02-07T11:40:03.996Z,12917.17
2024-02-07T11:41:04.019Z,12917.17
2024-02-07T11:42:03.939Z,12917.17
2024-02-07T11:43:03.922Z,12917.17
2024-02-07T11:44:03.987Z,12917.17
2024-02-07T11:45:03.901Z,12917.17
2024-02-07T11:46:03.885Z,12917.17
2024-02-07T11:47:04.702Z,12917.17
2024-02-07T11:48:03.977Z,12917.17
2024-02-07T11:49:03.995Z,12917.17
2024-02-07T11:50:04.070Z,12917.17
2024-02-07T11:51:03.820Z,12917.17
2024-02-07T11:52:03.840Z,12917.17
2024-02-07T11:53:04.003Z,12917.17
2024-02-07T11:54:03.772Z,12917.17
2024-02-07T11:55:03.819Z,12917.17
2024-02-07T11:56:03.809Z,12917.17
2024-02-07T11:57:03.739Z,12917.17